CLT TRACON Summary / KCLT TAF
CLT TRACON Summary:
Expect VFR conditions with FEW/SCT060-080 clouds to dissapate shortly after sunset. Increasing cirrus clouds will be seen late this evening and overnight. Surface winds will be NNE at 4-9 kts. Flight Hazards in the TRACON airspace outside of convection: None expected.

Updated: 4/27/2015 8:25 PM
CLT Terminal Aerodrome Forecast:

FTUS42 KGSP 272342
TAFCLT
TAF
KCLT 272342Z 2800/2824 36005KT P6SM FEW080 BKN250
     FM280300 02007KT P6SM SCT250
     FM282200 05004KT P6SM FEW060 BKN250=
CLT TRACON Area Remark:
NONE.
Convective Gate Forecast / Collaborative Convective Forecast Product / Vertical Wind Profile
Convective Gate Forecast
-->
AIRMETs & SIGMETS/ Southeast Radar loop / Satellite Image (click on image to enlarge)

Southeast Radar Loop

 



USA.gov is the U.S. government's official web portal to all federal, state and local government web resources and services.